createdAt,value
2018-09-30T00:00:32.912Z,3.42
2018-09-30T00:03:00.097Z,3.41
2018-09-30T00:05:27.278Z,3.50
2018-09-30T00:07:54.486Z,3.56
2018-09-30T00:10:21.655Z,3.37
2018-09-30T00:12:48.951Z,3.39
2018-09-30T00:15:16.109Z,3.47
2018-09-30T00:17:43.324Z,3.60
2018-09-30T00:20:10.488Z,3.29
2018-09-30T00:22:37.673Z,3.42
2018-09-30T00:25:10.576Z,3.49
2018-09-30T00:27:37.751Z,3.31
2018-09-30T00:30:05.195Z,3.27
2018-09-30T00:32:32.394Z,3.24
2018-09-30T00:34:59.496Z,3.22
2018-09-30T00:37:26.680Z,3.26
2018-09-30T00:39:53.833Z,3.27
2018-09-30T00:42:21.016Z,3.10
2018-09-30T00:44:48.150Z,3.10
2018-09-30T00:47:15.372Z,2.97
2018-09-30T00:49:42.496Z,2.64
2018-09-30T00:52:09.693Z,2.66
2018-09-30T00:54:36.903Z,2.82
2018-09-30T00:57:04.080Z,2.85
2018-09-30T00:59:31.304Z,2.96
2018-09-30T01:01:58.512Z,3.03
2018-09-30T01:04:25.797Z,3.02
2018-09-30T01:06:52.992Z,3.03
2018-09-30T01:09:20.286Z,2.93
2018-09-30T01:11:47.404Z,2.99
2018-09-30T01:14:14.560Z,2.43
2018-09-30T01:16:41.796Z,2.56
2018-09-30T01:19:08.960Z,2.49
2018-09-30T01:21:36.168Z,2.78
2018-09-30T01:24:03.393Z,2.77
2018-09-30T01:26:30.628Z,1.55
2018-09-30T01:28:57.791Z,2.80
2018-09-30T01:31:24.975Z,2.98
2018-09-30T01:33:52.160Z,2.89
2018-09-30T01:36:19.324Z,2.95
2018-09-30T01:38:46.460Z,2.84
2018-09-30T01:41:13.664Z,2.58
2018-09-30T01:43:40.851Z,2.68
2018-09-30T01:46:08.072Z,2.69
2018-09-30T01:48:35.219Z,2.29
2018-09-30T01:51:02.373Z,2.26
2018-09-30T01:53:29.511Z,2.09
2018-09-30T01:55:56.720Z,2.14
2018-09-30T01:58:23.921Z,2.30
2018-09-30T02:00:51.124Z,2.49
2018-09-30T02:03:18.308Z,2.53
2018-09-30T02:05:45.562Z,2.38
2018-09-30T02:08:12.701Z,2.56
2018-09-30T02:10:39.961Z,2.63
2018-09-30T02:13:07.127Z,2.62
2018-09-30T02:15:34.295Z,2.66
2018-09-30T02:18:01.493Z,2.52
2018-09-30T02:20:28.681Z,2.64
2018-09-30T02:22:55.898Z,2.61
2018-09-30T02:25:23.045Z,2.49
2018-09-30T02:27:50.275Z,2.64
2018-09-30T02:30:17.437Z,2.63
2018-09-30T02:32:44.636Z,2.56
2018-09-30T02:35:11.836Z,2.54
2018-09-30T02:37:38.967Z,2.47
2018-09-30T02:40:06.123Z,2.44
2018-09-30T02:42:33.327Z,2.37
2018-09-30T02:45:00.460Z,2.37
2018-09-30T02:47:27.657Z,2.08
2018-09-30T02:49:54.837Z,2.16
2018-09-30T02:52:22.058Z,1.82
2018-09-30T02:54:49.235Z,1.83
2018-09-30T02:57:16.440Z,1.93
2018-09-30T02:59:43.589Z,2.01
2018-09-30T03:02:10.801Z,2.14
2018-09-30T03:04:37.971Z,2.08
2018-09-30T03:07:10.956Z,2.15
2018-09-30T03:09:39.233Z,2.06
2018-09-30T03:12:06.413Z,2.04
2018-09-30T03:14:33.612Z,2.18
2018-09-30T03:17:00.809Z,2.25
2018-09-30T03:19:27.945Z,2.13
2018-09-30T03:21:55.139Z,1.93
2018-09-30T03:24:22.313Z,1.97
2018-09-30T03:26:49.519Z,1.86
2018-09-30T03:29:16.768Z,1.72
2018-09-30T03:31:43.975Z,1.73
2018-09-30T03:34:11.096Z,1.63
2018-09-30T03:36:38.359Z,1.31
2018-09-30T03:39:07.044Z,1.25
2018-09-30T03:41:34.216Z,1.52
2018-09-30T03:44:01.397Z,1.33
2018-09-30T03:46:28.583Z,1.59
2018-09-30T03:48:55.742Z,1.69
2018-09-30T03:51:22.892Z,1.69
2018-09-30T03:53:50.030Z,1.77
2018-09-30T03:56:17.214Z,1.75
2018-09-30T03:58:44.335Z,1.97
2018-09-30T04:01:11.688Z,1.95
2018-09-30T04:03:38.815Z,1.98
2018-09-30T04:06:06.026Z,1.66
2018-09-30T04:08:33.224Z,1.45
2018-09-30T04:11:00.372Z,1.70
2018-09-30T04:13:27.609Z,1.78
2018-09-30T04:15:54.768Z,1.51
2018-09-30T04:18:21.905Z,1.62
2018-09-30T04:20:49.044Z,1.62
2018-09-30T04:23:16.220Z,1.68
2018-09-30T04:25:43.332Z,1.62
2018-09-30T04:28:10.484Z,1.43
2018-09-30T04:30:37.691Z,1.56
2018-09-30T04:33:04.955Z,1.59
2018-09-30T04:35:32.024Z,1.27
2018-09-30T04:37:59.224Z,1.29
2018-09-30T04:40:26.384Z,1.39
2018-09-30T04:42:53.615Z,1.58
2018-09-30T04:45:20.760Z,1.47
2018-09-30T04:47:47.928Z,1.38
2018-09-30T04:50:15.092Z,1.48
2018-09-30T04:52:42.295Z,1.58
2018-09-30T04:55:09.456Z,1.46
2018-09-30T04:57:36.700Z,1.57
2018-09-30T05:00:04.332Z,1.32
2018-09-30T05:02:31.452Z,1.11
2018-09-30T05:04:58.695Z,0.86
2018-09-30T05:07:25.860Z,1.07
2018-09-30T05:09:53.085Z,1.17
2018-09-30T05:12:20.276Z,1.13
2018-09-30T05:14:47.478Z,1.20
2018-09-30T05:17:14.674Z,1.28
2018-09-30T05:19:41.867Z,1.25
2018-09-30T05:22:09.000Z,1.27
2018-09-30T05:24:36.182Z,1.29
2018-09-30T05:27:03.332Z,1.08
2018-09-30T05:29:30.510Z,1.11
2018-09-30T05:31:57.694Z,1.10
2018-09-30T05:34:24.918Z,1.01
2018-09-30T05:36:52.164Z,0.97
2018-09-30T05:39:19.300Z,0.80
2018-09-30T05:41:46.483Z,0.61
2018-09-30T05:44:13.629Z,0.47
2018-09-30T05:46:40.832Z,0.57
2018-09-30T05:49:08.390Z,0.95
2018-09-30T05:51:35.536Z,0.90
2018-09-30T05:54:02.693Z,1.11
2018-09-30T05:56:29.895Z,1.16
2018-09-30T05:58:57.051Z,1.39
2018-09-30T06:01:24.165Z,1.50
2018-09-30T06:03:51.413Z,1.44
2018-09-30T06:06:18.593Z,1.73
2018-09-30T06:08:45.789Z,1.81
2018-09-30T06:11:12.944Z,1.92
2018-09-30T06:13:40.175Z,1.76
2018-09-30T06:16:07.365Z,2.03
2018-09-30T06:18:34.444Z,2.14
2018-09-30T06:21:01.684Z,2.12
2018-09-30T06:23:28.900Z,2.22
2018-09-30T06:25:56.078Z,2.17
2018-09-30T06:28:23.380Z,2.35
2018-09-30T06:30:50.542Z,2.25
2018-09-30T06:33:17.796Z,2.21
2018-09-30T06:35:44.980Z,2.27
2018-09-30T06:38:12.131Z,2.45
2018-09-30T06:40:39.307Z,2.64
2018-09-30T06:43:06.523Z,2.98
2018-09-30T06:45:33.704Z,3.01
2018-09-30T06:48:01.427Z,3.23
2018-09-30T06:50:28.694Z,3.39
2018-09-30T06:52:55.820Z,3.56
2018-09-30T06:55:22.953Z,3.70
2018-09-30T06:57:50.208Z,3.93
2018-09-30T07:00:17.400Z,4.10
2018-09-30T07:02:44.544Z,4.39
2018-09-30T07:05:11.744Z,4.50
2018-09-30T07:07:38.865Z,4.68
2018-09-30T07:10:06.161Z,4.81
2018-09-30T07:12:33.319Z,4.97
2018-09-30T07:15:00.551Z,5.41
2018-09-30T07:17:27.732Z,5.62
2018-09-30T07:19:54.940Z,5.73
2018-09-30T07:22:22.268Z,5.80
2018-09-30T07:24:49.438Z,5.87
2018-09-30T07:27:16.594Z,6.01
2018-09-30T07:29:43.848Z,6.39
2018-09-30T07:32:11.083Z,6.89
2018-09-30T07:34:38.221Z,6.68
2018-09-30T07:37:05.372Z,6.88
2018-09-30T07:39:32.628Z,7.09
2018-09-30T07:41:59.688Z,7.08
2018-09-30T07:44:26.848Z,7.43
2018-09-30T07:46:54.169Z,7.58
2018-09-30T07:49:21.241Z,8.06
2018-09-30T07:51:48.465Z,8.48
2018-09-30T07:54:15.663Z,8.62
2018-09-30T07:56:42.805Z,8.90
2018-09-30T07:59:09.999Z,8.82
2018-09-30T08:01:37.244Z,9.19
2018-09-30T08:04:04.377Z,9.22
2018-09-30T08:06:31.769Z,9.68
2018-09-30T08:08:59.177Z,9.51
2018-09-30T08:11:26.331Z,9.41
2018-09-30T08:13:53.497Z,9.56
2018-09-30T08:16:20.677Z,9.70
2018-09-30T08:18:47.812Z,9.74
2018-09-30T08:21:14.950Z,9.78
2018-09-30T08:23:42.115Z,9.99
2018-09-30T08:26:09.381Z,9.68
2018-09-30T08:28:36.509Z,9.01
2018-09-30T08:31:03.728Z,9.58
2018-09-30T08:33:30.892Z,9.53
2018-09-30T08:36:03.916Z,9.52
2018-09-30T08:38:32.394Z,9.69
2018-09-30T08:41:05.977Z,9.99
2018-09-30T08:43:34.536Z,10.20
2018-09-30T08:46:01.717Z,10.14
2018-09-30T08:48:28.908Z,10.29
2018-09-30T08:50:56.358Z,10.44
2018-09-30T08:53:23.889Z,10.75
2018-09-30T08:55:51.325Z,10.63
2018-09-30T08:58:18.520Z,10.41
2018-09-30T09:00:45.688Z,10.69
2018-09-30T09:03:12.889Z,10.98
2018-09-30T09:05:40.025Z,10.87
2018-09-30T09:08:07.176Z,10.93
2018-09-30T09:10:34.351Z,11.10
2018-09-30T09:13:01.484Z,11.04
2018-09-30T09:15:28.668Z,11.11
2018-09-30T09:17:55.800Z,11.47
2018-09-30T09:20:22.984Z,11.37
2018-09-30T09:22:50.224Z,11.51
2018-09-30T09:25:17.462Z,11.39
2018-09-30T09:27:44.668Z,11.64
2018-09-30T09:30:11.813Z,11.65
2018-09-30T09:32:39.076Z,11.57
2018-09-30T09:35:08.053Z,11.73
2018-09-30T09:37:36.468Z,11.98
2018-09-30T09:52:58.912Z,12.00
2018-09-30T09:55:26.106Z,12.29
2018-09-30T09:57:53.373Z,12.08
2018-09-30T10:00:26.149Z,12.24
2018-09-30T10:02:53.337Z,12.03
2018-09-30T10:05:20.537Z,12.28
2018-09-30T10:07:47.736Z,12.33
2018-09-30T10:10:14.936Z,12.52
2018-09-30T10:12:42.093Z,12.53
2018-09-30T10:15:09.403Z,12.51
2018-09-30T10:17:36.585Z,12.51
2018-09-30T10:20:04.957Z,12.43
2018-09-30T10:22:32.164Z,12.87
2018-09-30T10:24:59.361Z,12.67
2018-09-30T10:27:26.615Z,12.60
2018-09-30T10:29:53.824Z,12.93
2018-09-30T10:32:21.025Z,13.03
2018-09-30T10:34:48.239Z,13.47
2018-09-30T10:37:15.363Z,13.30
2018-09-30T10:39:42.497Z,13.56
2018-09-30T10:42:09.651Z,13.38
2018-09-30T10:44:36.890Z,13.72
2018-09-30T10:47:04.160Z,14.13
2018-09-30T10:49:31.384Z,13.89
2018-09-30T10:51:58.570Z,14.37
2018-09-30T10:54:25.756Z,14.16
2018-09-30T10:56:53.050Z,13.96
2018-09-30T10:59:20.220Z,13.96
2018-09-30T11:01:47.418Z,13.97
2018-09-30T11:04:14.613Z,14.13
2018-09-30T11:06:41.826Z,14.17
2018-09-30T11:09:08.956Z,14.22
2018-09-30T11:11:36.116Z,14.52
2018-09-30T11:14:03.564Z,14.94
2018-09-30T11:16:30.826Z,14.65
2018-09-30T11:18:57.988Z,14.76
2018-09-30T11:21:25.257Z,15.05
2018-09-30T11:23:52.444Z,14.98
2018-09-30T11:26:19.615Z,15.45
2018-09-30T11:28:46.793Z,15.44
2018-09-30T11:31:13.978Z,16.16
2018-09-30T11:33:41.199Z,16.29
2018-09-30T11:36:08.373Z,16.89
2018-09-30T11:38:35.540Z,17.21
2018-09-30T11:41:02.807Z,17.50
2018-09-30T11:43:30.004Z,17.24
2018-09-30T11:45:57.161Z,18.07
2018-09-30T11:48:31.047Z,18.01
2018-09-30T11:50:58.255Z,18.42
2018-09-30T11:53:25.449Z,18.58
2018-09-30T11:55:53.227Z,17.80
2018-09-30T11:58:20.407Z,18.13
2018-09-30T12:00:47.604Z,17.40
2018-09-30T12:03:14.837Z,18.15
2018-09-30T12:05:42.050Z,18.39
2018-09-30T12:08:09.279Z,18.65
2018-09-30T12:10:36.384Z,17.55
2018-09-30T12:13:03.547Z,18.77
2018-09-30T12:15:30.730Z,19.46
2018-09-30T12:17:57.859Z,18.55
2018-09-30T12:20:25.069Z,18.71
2018-09-30T12:22:52.373Z,18.07
2018-09-30T12:25:19.534Z,18.95
2018-09-30T12:27:46.676Z,19.40
2018-09-30T12:30:13.848Z,19.89
2018-09-30T12:32:41.020Z,19.56
2018-09-30T12:35:08.225Z,20.42
2018-09-30T12:37:35.409Z,19.63
2018-09-30T12:40:03.416Z,20.10
2018-09-30T12:42:30.580Z,19.18
2018-09-30T12:44:57.768Z,19.44
2018-09-30T12:47:25.227Z,19.32
2018-09-30T12:49:52.395Z,20.34
2018-09-30T12:52:19.581Z,20.83
2018-09-30T12:54:47.273Z,20.96
2018-09-30T12:57:14.562Z,20.04
2018-09-30T12:59:41.818Z,19.78
2018-09-30T13:02:09.051Z,21.04
2018-09-30T13:04:36.367Z,20.91
2018-09-30T13:07:03.639Z,20.62
2018-09-30T13:09:30.964Z,21.09
2018-09-30T13:11:58.180Z,21.67
2018-09-30T13:14:25.703Z,22.31
2018-09-30T13:16:52.928Z,22.80
2018-09-30T13:19:20.185Z,22.69
2018-09-30T13:21:47.549Z,22.84
2018-09-30T13:24:14.897Z,22.68
2018-09-30T13:26:42.203Z,22.83
2018-09-30T13:29:09.552Z,23.19
2018-09-30T13:31:36.766Z,22.82
2018-09-30T13:34:04.096Z,21.88
2018-09-30T13:36:31.312Z,21.91
2018-09-30T13:38:58.580Z,22.36
2018-09-30T13:41:25.895Z,22.37
2018-09-30T13:43:53.256Z,22.69
2018-09-30T13:46:20.449Z,22.37
2018-09-30T13:48:47.689Z,22.55
2018-09-30T13:51:15.142Z,22.93
2018-09-30T13:53:42.595Z,22.86
2018-09-30T13:56:09.932Z,23.72
2018-09-30T13:58:37.226Z,23.97
2018-09-30T14:01:04.496Z,24.09
2018-09-30T14:03:31.818Z,24.13
2018-09-30T14:05:59.137Z,23.38
2018-09-30T14:08:26.402Z,23.56
2018-09-30T14:10:53.743Z,23.83
2018-09-30T14:13:20.999Z,23.79
2018-09-30T14:15:48.266Z,23.08
2018-09-30T14:18:15.516Z,23.78
2018-09-30T14:20:42.842Z,22.82
2018-09-30T14:23:10.171Z,22.48
2018-09-30T14:25:37.440Z,21.98
2018-09-30T14:28:04.840Z,21.51
2018-09-30T14:30:32.060Z,22.60
2018-09-30T14:32:59.280Z,23.55
2018-09-30T14:35:26.498Z,22.19
2018-09-30T14:37:53.770Z,22.61
2018-09-30T14:40:21.014Z,22.55
2018-09-30T14:42:48.164Z,23.77
2018-09-30T14:45:15.426Z,23.98
2018-09-30T14:47:42.684Z,24.14
2018-09-30T14:50:09.992Z,24.40
2018-09-30T14:52:37.292Z,24.56
2018-09-30T14:55:04.741Z,24.44
2018-09-30T14:57:32.024Z,24.20
2018-09-30T14:59:59.288Z,23.86
2018-09-30T15:02:26.536Z,23.97
2018-09-30T15:04:53.833Z,23.98
2018-09-30T15:07:21.088Z,24.11
2018-09-30T15:09:48.385Z,23.97
2018-09-30T15:12:15.696Z,23.83
2018-09-30T15:14:42.987Z,23.65
2018-09-30T15:17:10.409Z,23.50
2018-09-30T15:19:37.823Z,22.59
2018-09-30T15:22:05.554Z,22.04
2018-09-30T15:24:33.181Z,21.37
2018-09-30T15:27:00.488Z,20.73
2018-09-30T15:29:27.879Z,20.29
2018-09-30T15:31:55.277Z,19.84
2018-09-30T15:34:22.512Z,19.62
2018-09-30T15:36:49.704Z,19.23
2018-09-30T15:39:16.977Z,19.20
2018-09-30T15:41:44.369Z,19.06
2018-09-30T15:44:12.202Z,18.85
2018-09-30T15:46:39.821Z,18.62
2018-09-30T15:49:07.449Z,18.64
2018-09-30T15:51:34.654Z,18.28
2018-09-30T15:54:02.087Z,18.22
2018-09-30T15:56:29.334Z,18.22
2018-09-30T15:58:56.556Z,18.10
2018-09-30T16:01:23.746Z,18.06
2018-09-30T16:03:50.955Z,18.07
2018-09-30T16:06:18.128Z,18.11
2018-09-30T16:08:45.306Z,17.88
2018-09-30T16:11:12.527Z,17.82
2018-09-30T16:13:39.966Z,17.59
2018-09-30T16:16:08.156Z,17.37
2018-09-30T16:18:35.347Z,17.04
2018-09-30T16:21:02.584Z,16.92
2018-09-30T16:23:29.832Z,17.02
2018-09-30T16:25:57.163Z,16.80
2018-09-30T16:28:24.735Z,16.78
2018-09-30T16:30:51.983Z,16.49
2018-09-30T16:33:19.174Z,16.19
2018-09-30T16:35:46.656Z,16.12
2018-09-30T16:38:14.378Z,15.93
2018-09-30T16:40:41.869Z,15.85
2018-09-30T16:43:09.056Z,15.75
2018-09-30T16:45:36.270Z,15.67
2018-09-30T16:48:03.466Z,15.61
2018-09-30T16:50:30.730Z,15.35
2018-09-30T16:52:57.922Z,15.31
2018-09-30T16:55:25.276Z,15.08
2018-09-30T16:57:52.496Z,14.99
2018-09-30T17:00:27.113Z,14.85
2018-09-30T17:02:54.391Z,14.64
2018-09-30T17:05:21.617Z,14.22
2018-09-30T17:07:48.791Z,13.88
2018-09-30T17:10:15.994Z,13.56
2018-09-30T17:12:43.198Z,13.67
2018-09-30T17:15:10.407Z,13.72
2018-09-30T17:17:37.684Z,13.70
2018-09-30T17:20:13.491Z,13.72
2018-09-30T17:22:41.091Z,13.55
2018-09-30T17:25:08.469Z,13.59
2018-09-30T17:27:35.709Z,13.30
2018-09-30T17:30:03.277Z,12.86
2018-09-30T17:32:30.520Z,12.66
2018-09-30T17:34:57.822Z,12.87
2018-09-30T17:37:25.117Z,12.81
2018-09-30T17:39:52.663Z,12.66
2018-09-30T17:42:19.938Z,12.61
2018-09-30T17:44:47.165Z,12.52
2018-09-30T17:47:14.378Z,12.25
2018-09-30T17:49:41.844Z,12.31
2018-09-30T17:52:09.099Z,12.36
2018-09-30T17:54:36.342Z,12.46
2018-09-30T17:57:03.636Z,12.30
2018-09-30T17:59:30.926Z,12.05
2018-09-30T18:01:58.167Z,11.65
2018-09-30T18:04:25.486Z,11.18
2018-09-30T18:06:52.734Z,11.37
2018-09-30T18:09:19.933Z,11.47
2018-09-30T18:11:47.233Z,11.65
2018-09-30T18:14:14.484Z,11.56
2018-09-30T18:16:41.738Z,11.48
2018-09-30T18:19:09.040Z,11.51
2018-09-30T18:21:36.299Z,11.52
2018-09-30T18:24:03.617Z,11.43
2018-09-30T18:26:30.892Z,11.25
2018-09-30T18:28:58.157Z,11.36
2018-09-30T18:31:25.365Z,11.07
2018-09-30T18:33:52.564Z,11.03
2018-09-30T18:36:19.781Z,11.09
2018-09-30T18:38:46.977Z,11.13
2018-09-30T18:41:14.221Z,10.73
2018-09-30T18:43:41.378Z,10.43
2018-09-30T18:46:08.628Z,10.45
2018-09-30T18:48:36.680Z,10.44
2018-09-30T18:51:04.066Z,10.48
2018-09-30T18:53:31.464Z,10.46
2018-09-30T18:55:58.742Z,10.37
2018-09-30T18:58:25.920Z,10.43
2018-09-30T19:00:53.173Z,10.45
2018-09-30T19:03:20.440Z,10.41
2018-09-30T19:05:47.657Z,10.30
2018-09-30T19:08:14.895Z,9.90
2018-09-30T19:10:42.171Z,10.12
2018-09-30T19:13:09.386Z,10.20
2018-09-30T19:15:36.658Z,9.96
2018-09-30T19:18:03.868Z,9.87
2018-09-30T19:20:31.089Z,9.42
2018-09-30T19:22:58.347Z,9.15
2018-09-30T19:25:25.445Z,8.88
2018-09-30T19:27:52.689Z,8.77
2018-09-30T19:30:19.960Z,8.86
2018-09-30T19:32:47.215Z,8.99
2018-09-30T19:35:14.432Z,8.94
2018-09-30T19:37:41.696Z,8.87
2018-09-30T19:40:08.932Z,8.76
2018-09-30T19:42:36.310Z,8.73
2018-09-30T19:45:04.341Z,8.77
2018-09-30T19:47:32.413Z,8.93
2018-09-30T19:49:59.644Z,8.88
2018-09-30T19:52:26.865Z,8.94
2018-09-30T19:54:54.067Z,8.96
2018-09-30T19:57:21.291Z,8.99
2018-09-30T19:59:48.465Z,9.00
2018-09-30T20:02:15.712Z,9.02
2018-09-30T20:04:42.896Z,8.87
2018-09-30T20:07:10.071Z,8.80
2018-09-30T20:09:37.370Z,8.77
2018-09-30T20:12:04.541Z,8.62
2018-09-30T20:14:31.793Z,8.69
2018-09-30T20:16:59.090Z,8.67
2018-09-30T20:19:26.277Z,8.53
2018-09-30T20:21:53.473Z,8.52
2018-09-30T20:24:20.711Z,8.23
2018-09-30T20:26:47.962Z,8.15
2018-09-30T20:29:15.212Z,8.37
2018-09-30T20:31:42.476Z,8.39
2018-09-30T20:34:09.665Z,8.50
2018-09-30T20:36:36.852Z,8.53
2018-09-30T20:39:05.204Z,8.36
2018-09-30T20:41:32.677Z,8.43
2018-09-30T20:43:59.840Z,8.05
2018-09-30T20:46:27.080Z,8.36
2018-09-30T20:48:54.286Z,8.02
2018-09-30T20:51:21.446Z,7.95
2018-09-30T20:53:48.641Z,7.76
2018-09-30T20:56:15.820Z,7.46
2018-09-30T20:58:42.980Z,7.77
2018-09-30T21:01:10.202Z,7.86
2018-09-30T21:03:37.449Z,7.99
2018-09-30T21:06:36.678Z,7.99
2018-09-30T21:09:07.033Z,7.47
2018-09-30T21:11:34.209Z,7.73
2018-09-30T21:14:01.451Z,7.85
2018-09-30T21:16:28.753Z,7.94
2018-09-30T21:18:56.009Z,7.83
2018-09-30T21:21:23.212Z,7.89
2018-09-30T21:23:50.517Z,7.82
2018-09-30T21:26:17.761Z,7.78
2018-09-30T21:28:45.036Z,7.70
2018-09-30T21:31:12.237Z,7.78
2018-09-30T21:33:39.460Z,7.72
2018-09-30T21:36:06.675Z,7.69
2018-09-30T21:38:33.940Z,7.34
2018-09-30T21:41:01.138Z,7.55
2018-09-30T21:43:28.313Z,7.37
2018-09-30T21:45:55.547Z,7.22
2018-09-30T21:48:22.763Z,7.30
2018-09-30T21:50:50.007Z,7.28
2018-09-30T21:53:17.665Z,7.28
2018-09-30T21:55:44.935Z,7.04
2018-09-30T21:58:12.176Z,7.27
2018-09-30T22:00:41.408Z,7.27
2018-09-30T22:03:10.177Z,7.14
2018-09-30T22:05:37.608Z,6.86
2018-09-30T22:08:05.914Z,7.11
2018-09-30T22:10:33.112Z,7.12
2018-09-30T22:13:00.348Z,7.15
2018-09-30T22:15:27.569Z,7.21
2018-09-30T22:17:55.008Z,6.62
2018-09-30T22:20:22.171Z,6.39
2018-09-30T22:22:49.316Z,6.29
2018-09-30T22:25:16.524Z,6.37
2018-09-30T22:27:44.263Z,6.57
2018-09-30T22:30:11.729Z,6.66
2018-09-30T22:32:38.857Z,6.85
2018-09-30T22:35:06.065Z,7.02
2018-09-30T22:37:33.283Z,6.93
2018-09-30T22:40:00.492Z,6.83
2018-09-30T22:42:27.698Z,6.80
2018-09-30T22:44:54.873Z,7.00
2018-09-30T22:47:22.133Z,6.67
2018-09-30T22:49:49.356Z,6.37
2018-09-30T22:52:16.562Z,6.52
2018-09-30T22:54:43.781Z,6.65
2018-09-30T22:57:10.952Z,6.51
2018-09-30T22:59:38.145Z,6.55
2018-09-30T23:02:05.668Z,6.30
2018-09-30T23:04:32.907Z,6.30
2018-09-30T23:07:00.122Z,6.48
2018-09-30T23:09:27.296Z,6.25
2018-09-30T23:11:54.417Z,6.13
2018-09-30T23:14:21.636Z,6.21
2018-09-30T23:16:48.825Z,6.25
2018-09-30T23:19:16.017Z,6.16
2018-09-30T23:21:43.196Z,6.02
2018-09-30T23:24:10.395Z,6.02
2018-09-30T23:26:37.600Z,6.12
2018-09-30T23:29:04.973Z,6.10
2018-09-30T23:31:32.143Z,5.67
2018-09-30T23:33:59.316Z,5.74
2018-09-30T23:36:26.489Z,6.08
2018-09-30T23:38:53.696Z,5.77
2018-09-30T23:41:20.920Z,5.36
2018-09-30T23:43:48.117Z,5.66
2018-09-30T23:46:15.332Z,5.88
2018-09-30T23:48:42.493Z,5.90
2018-09-30T23:51:09.659Z,6.01
2018-09-30T23:53:36.877Z,5.98
2018-09-30T23:56:04.040Z,6.07
2018-09-30T23:58:31.272Z,6.00
